Thurston, Oregon
Current Conditions -  °F | °C
As of 5:54 AM on Saturday 25 Oct 2014 (Local Time) from KEUG Reporting Station
Light Rain Light Rain  
Wind Chill: 52°   Ceiling: 6000
Heat Index: 52°   Visibility: 6mi
Dew Point: 50°   Wind: 17mph
Humidity: 93%   Direction: 110°ESE
Pressure: 29.54"   Gusts: NA
Location:  44.05°N, 122.92°W
Report Text: KEUG 251254Z 11015KT 6SM -RA BR FEW050 BKN060 OVC075 11/10 A2954 RMK AO2 RAB07 PRESFR SLP002 P0005 T01110100
Loading
Personal Weather Stations






























Interactive Weather Map
Tropical Storm Tracking
New forecast layout! Learn more

10-Day Weather Forecast

Advertisements
Track Severe Weather on mobile